sensor_id;sensor_type;location;lat;lon;timestamp;temperature;humidity
5901;DHT22;2976;49.764;9.796;2022-07-29T00:00:57;18.90;1.00
5901;DHT22;2976;49.764;9.796;2022-07-29T00:03:23;18.80;1.00
5901;DHT22;2976;49.764;9.796;2022-07-29T00:05:49;18.70;1.00
5901;DHT22;2976;49.764;9.796;2022-07-29T00:08:14;18.60;1.00
5901;DHT22;2976;49.764;9.796;2022-07-29T00:10:41;18.50;1.00
5901;DHT22;2976;49.764;9.796;2022-07-29T00:13:06;18.40;1.00
5901;DHT22;2976;49.764;9.796;2022-07-29T00:15:32;18.30;1.00
5901;DHT22;2976;49.764;9.796;2022-07-29T00:17:58;18.30;1.00
5901;DHT22;2976;49.764;9.796;2022-07-29T00:20:24;18.30;1.00
5901;DHT22;2976;49.764;9.796;2022-07-29T00:22:49;18.20;1.00
5901;DHT22;2976;49.764;9.796;2022-07-29T00:25:15;18.20;1.00
5901;DHT22;2976;49.764;9.796;2022-07-29T00:27:40;18.30;1.00
5901;DHT22;2976;49.764;9.796;2022-07-29T00:30:07;18.30;1.00
5901;DHT22;2976;49.764;9.796;2022-07-29T00:32:33;18.30;1.00
5901;DHT22;2976;49.764;9.796;2022-07-29T00:34:58;18.20;1.00
5901;DHT22;2976;49.764;9.796;2022-07-29T00:37:42;18.20;1.00
5901;DHT22;2976;49.764;9.796;2022-07-29T00:40:09;18.20;1.00
5901;DHT22;2976;49.764;9.796;2022-07-29T00:42:44;18.20;1.00
5901;DHT22;2976;49.764;9.796;2022-07-29T00:45:11;18.20;1.00
5901;DHT22;2976;49.764;9.796;2022-07-29T00:47:36;18.20;1.00
5901;DHT22;2976;49.764;9.796;2022-07-29T00:50:04;18.30;1.00
5901;DHT22;2976;49.764;9.796;2022-07-29T00:52:30;18.30;1.00
5901;DHT22;2976;49.764;9.796;2022-07-29T00:54:56;18.20;1.00
5901;DHT22;2976;49.764;9.796;2022-07-29T00:57:22;18.20;1.00
5901;DHT22;2976;49.764;9.796;2022-07-29T00:59:47;18.10;1.00
5901;DHT22;2976;49.764;9.796;2022-07-29T01:02:13;18.00;1.00
5901;DHT22;2976;49.764;9.796;2022-07-29T01:04:39;18.00;1.00
5901;DHT22;2976;49.764;9.796;2022-07-29T01:07:06;18.00;1.00
5901;DHT22;2976;49.764;9.796;2022-07-29T01:09:33;18.00;1.00
5901;DHT22;2976;49.764;9.796;2022-07-29T01:11:59;18.00;1.00
5901;DHT22;2976;49.764;9.796;2022-07-29T01:14:25;18.00;1.00
5901;DHT22;2976;49.764;9.796;2022-07-29T01:16:56;18.00;1.00
5901;DHT22;2976;49.764;9.796;2022-07-29T01:22:31;18.00;1.00
5901;DHT22;2976;49.764;9.796;2022-07-29T01:25:17;18.00;1.00
5901;DHT22;2976;49.764;9.796;2022-07-29T01:30:29;17.90;1.00
5901;DHT22;2976;49.764;9.796;2022-07-29T01:33:01;17.80;1.00
5901;DHT22;2976;49.764;9.796;2022-07-29T01:35:36;17.80;1.00
5901;DHT22;2976;49.764;9.796;2022-07-29T01:38:14;17.70;1.00
5901;DHT22;2976;49.764;9.796;2022-07-29T01:40:58;17.70;1.00
5901;DHT22;2976;49.764;9.796;2022-07-29T01:43:44;17.70;1.00
5901;DHT22;2976;49.764;9.796;2022-07-29T01:46:19;17.60;1.00
5901;DHT22;2976;49.764;9.796;2022-07-29T01:48:49;17.60;1.00
5901;DHT22;2976;49.764;9.796;2022-07-29T01:51:20;17.60;1.00
5901;DHT22;2976;49.764;9.796;2022-07-29T01:54:04;17.50;1.00
5901;DHT22;2976;49.764;9.796;2022-07-29T01:56:32;17.50;1.00
5901;DHT22;2976;49.764;9.796;2022-07-29T01:59:01;17.60;1.00
5901;DHT22;2976;49.764;9.796;2022-07-29T02:01:29;17.60;1.00
5901;DHT22;2976;49.764;9.796;2022-07-29T02:03:56;17.70;1.00
5901;DHT22;2976;49.764;9.796;2022-07-29T02:06:23;17.70;1.00
5901;DHT22;2976;49.764;9.796;2022-07-29T02:08:50;17.70;1.00
5901;DHT22;2976;49.764;9.796;2022-07-29T02:11:17;17.70;1.00
5901;DHT22;2976;49.764;9.796;2022-07-29T02:13:43;17.70;1.00
5901;DHT22;2976;49.764;9.796;2022-07-29T02:16:10;17.70;1.00
5901;DHT22;2976;49.764;9.796;2022-07-29T02:18:37;17.70;1.00
5901;DHT22;2976;49.764;9.796;2022-07-29T02:21:04;17.60;1.00
5901;DHT22;2976;49.764;9.796;2022-07-29T02:23:31;17.60;1.00
5901;DHT22;2976;49.764;9.796;2022-07-29T02:25:59;17.60;1.00
5901;DHT22;2976;49.764;9.796;2022-07-29T02:28:29;17.60;1.00
5901;DHT22;2976;49.764;9.796;2022-07-29T02:30:59;17.60;1.00
5901;DHT22;2976;49.764;9.796;2022-07-29T02:33:26;17.50;1.00
5901;DHT22;2976;49.764;9.796;2022-07-29T02:35:52;17.40;1.00
5901;DHT22;2976;49.764;9.796;2022-07-29T02:38:19;17.40;1.00
5901;DHT22;2976;49.764;9.796;2022-07-29T02:41:11;17.40;1.00
5901;DHT22;2976;49.764;9.796;2022-07-29T02:43:38;17.40;1.00
5901;DHT22;2976;49.764;9.796;2022-07-29T02:46:05;17.30;1.00
5901;DHT22;2976;49.764;9.796;2022-07-29T02:48:37;17.20;1.00
5901;DHT22;2976;49.764;9.796;2022-07-29T02:51:12;17.10;1.00
5901;DHT22;2976;49.764;9.796;2022-07-29T02:53:38;17.00;1.00
5901;DHT22;2976;49.764;9.796;2022-07-29T02:56:10;16.90;1.00
5901;DHT22;2976;49.764;9.796;2022-07-29T02:58:45;16.80;1.00
5901;DHT22;2976;49.764;9.796;2022-07-29T03:01:22;16.70;1.00
5901;DHT22;2976;49.764;9.796;2022-07-29T03:03:49;16.70;1.00
5901;DHT22;2976;49.764;9.796;2022-07-29T03:06:17;16.70;1.00
5901;DHT22;2976;49.764;9.796;2022-07-29T03:08:44;16.70;1.00
5901;DHT22;2976;49.764;9.796;2022-07-29T03:11:11;16.60;1.10
5901;DHT22;2976;49.764;9.796;2022-07-29T03:13:37;16.60;16.50
5901;DHT22;2976;49.764;9.796;2022-07-29T03:16:05;16.40;99.90
5901;DHT22;2976;49.764;9.796;2022-07-29T03:18:31;16.40;99.90
5901;DHT22;2976;49.764;9.796;2022-07-29T03:20:57;16.30;99.90
5901;DHT22;2976;49.764;9.796;2022-07-29T03:23:23;16.40;99.90
5901;DHT22;2976;49.764;9.796;2022-07-29T03:25:50;16.40;99.90
5901;DHT22;2976;49.764;9.796;2022-07-29T03:28:16;16.40;99.90
5901;DHT22;2976;49.764;9.796;2022-07-29T03:30:41;16.40;99.90
5901;DHT22;2976;49.764;9.796;2022-07-29T03:33:07;16.40;99.90
5901;DHT22;2976;49.764;9.796;2022-07-29T03:35:32;16.40;99.90
5901;DHT22;2976;49.764;9.796;2022-07-29T03:37:58;16.40;99.90
5901;DHT22;2976;49.764;9.796;2022-07-29T03:43:03;16.40;99.90
5901;DHT22;2976;49.764;9.796;2022-07-29T03:45:32;16.50;99.90
5901;DHT22;2976;49.764;9.796;2022-07-29T03:48:02;16.50;99.90
5901;DHT22;2976;49.764;9.796;2022-07-29T03:50:30;16.50;99.90
5901;DHT22;2976;49.764;9.796;2022-07-29T03:52:57;16.60;97.90
5901;DHT22;2976;49.764;9.796;2022-07-29T03:55:23;16.60;99.90
5901;DHT22;2976;49.764;9.796;2022-07-29T03:57:49;16.50;99.90
5901;DHT22;2976;49.764;9.796;2022-07-29T04:00:16;16.50;99.90
5901;DHT22;2976;49.764;9.796;2022-07-29T04:02:42;16.50;99.90
5901;DHT22;2976;49.764;9.796;2022-07-29T04:05:12;16.40;99.90
5901;DHT22;2976;49.764;9.796;2022-07-29T04:07:38;16.40;99.90
5901;DHT22;2976;49.764;9.796;2022-07-29T04:10:04;16.40;99.90
5901;DHT22;2976;49.764;9.796;2022-07-29T04:12:30;16.30;99.90
5901;DHT22;2976;49.764;9.796;2022-07-29T04:14:55;16.30;99.90
5901;DHT22;2976;49.764;9.796;2022-07-29T04:17:21;16.30;99.90
5901;DHT22;2976;49.764;9.796;2022-07-29T04:19:46;16.30;99.90
5901;DHT22;2976;49.764;9.796;2022-07-29T04:22:12;16.30;91.40
5901;DHT22;2976;49.764;9.796;2022-07-29T04:24:37;16.40;99.90
5901;DHT22;2976;49.764;9.796;2022-07-29T04:27:03;16.40;99.90
5901;DHT22;2976;49.764;9.796;2022-07-29T04:29:28;16.40;99.90
5901;DHT22;2976;49.764;9.796;2022-07-29T04:31:54;16.40;99.90
5901;DHT22;2976;49.764;9.796;2022-07-29T04:34:19;16.40;99.90
5901;DHT22;2976;49.764;9.796;2022-07-29T04:36:45;16.40;99.90
5901;DHT22;2976;49.764;9.796;2022-07-29T04:39:10;16.40;99.90
5901;DHT22;2976;49.764;9.796;2022-07-29T04:41:36;16.50;99.90
5901;DHT22;2976;49.764;9.796;2022-07-29T04:44:02;16.50;99.90
5901;DHT22;2976;49.764;9.796;2022-07-29T04:46:30;16.60;99.90
5901;DHT22;2976;49.764;9.796;2022-07-29T04:48:56;16.70;99.90
5901;DHT22;2976;49.764;9.796;2022-07-29T04:51:22;16.70;98.90
5901;DHT22;2976;49.764;9.796;2022-07-29T04:53:47;16.80;96.40
5901;DHT22;2976;49.764;9.796;2022-07-29T04:56:13;17.20;54.10
5901;DHT22;2976;49.764;9.796;2022-07-29T04:58:38;17.60;10.50
5901;DHT22;2976;49.764;9.796;2022-07-29T05:01:04;17.90;1.00
5901;DHT22;2976;49.764;9.796;2022-07-29T05:03:30;18.00;1.00
5901;DHT22;2976;49.764;9.796;2022-07-29T05:05:55;18.20;1.00
5901;DHT22;2976;49.764;9.796;2022-07-29T05:08:21;18.20;1.00
5901;DHT22;2976;49.764;9.796;2022-07-29T05:10:46;18.20;1.00
5901;DHT22;2976;49.764;9.796;2022-07-29T05:13:12;18.10;1.00
5901;DHT22;2976;49.764;9.796;2022-07-29T05:15:38;18.00;1.00
5901;DHT22;2976;49.764;9.796;2022-07-29T05:18:04;18.10;1.00
5901;DHT22;2976;49.764;9.796;2022-07-29T05:20:30;18.20;1.00
5901;DHT22;2976;49.764;9.796;2022-07-29T05:22:59;18.40;1.00
5901;DHT22;2976;49.764;9.796;2022-07-29T05:25:26;18.50;1.00
5901;DHT22;2976;49.764;9.796;2022-07-29T05:27:52;18.50;1.00
5901;DHT22;2976;49.764;9.796;2022-07-29T05:30:17;18.50;1.00
5901;DHT22;2976;49.764;9.796;2022-07-29T05:32:43;18.60;1.00
5901;DHT22;2976;49.764;9.796;2022-07-29T05:35:09;18.80;1.00
5901;DHT22;2976;49.764;9.796;2022-07-29T05:37:35;18.90;1.00
5901;DHT22;2976;49.764;9.796;2022-07-29T05:40:01;19.00;1.00
5901;DHT22;2976;49.764;9.796;2022-07-29T05:42:27;19.10;1.00
5901;DHT22;2976;49.764;9.796;2022-07-29T05:44:54;19.20;1.00
5901;DHT22;2976;49.764;9.796;2022-07-29T05:47:19;19.50;1.00
5901;DHT22;2976;49.764;9.796;2022-07-29T05:49:45;20.00;1.00
5901;DHT22;2976;49.764;9.796;2022-07-29T05:52:11;21.00;1.00
5901;DHT22;2976;49.764;9.796;2022-07-29T05:54:38;22.40;1.00
5901;DHT22;2976;49.764;9.796;2022-07-29T05:57:04;23.30;1.00
5901;DHT22;2976;49.764;9.796;2022-07-29T05:59:31;24.20;1.00
5901;DHT22;2976;49.764;9.796;2022-07-29T06:01:57;24.10;1.00
5901;DHT22;2976;49.764;9.796;2022-07-29T06:04:22;23.10;1.00
5901;DHT22;2976;49.764;9.796;2022-07-29T06:06:48;22.60;1.00
5901;DHT22;2976;49.764;9.796;2022-07-29T06:09:13;22.30;1.00
5901;DHT22;2976;49.764;9.796;2022-07-29T06:11:40;22.90;1.00
5901;DHT22;2976;49.764;9.796;2022-07-29T06:14:05;23.70;1.00
5901;DHT22;2976;49.764;9.796;2022-07-29T06:16:31;24.40;1.00
5901;DHT22;2976;49.764;9.796;2022-07-29T06:18:56;24.70;1.00
5901;DHT22;2976;49.764;9.796;2022-07-29T06:21:22;24.70;1.00
5901;DHT22;2976;49.764;9.796;2022-07-29T06:23:47;24.80;1.00
5901;DHT22;2976;49.764;9.796;2022-07-29T06:26:13;24.60;1.00
5901;DHT22;2976;49.764;9.796;2022-07-29T06:28:38;25.10;1.00
5901;DHT22;2976;49.764;9.796;2022-07-29T06:31:05;26.10;1.00
5901;DHT22;2976;49.764;9.796;2022-07-29T06:33:31;26.80;1.00
5901;DHT22;2976;49.764;9.796;2022-07-29T06:35:56;27.20;1.00
5901;DHT22;2976;49.764;9.796;2022-07-29T06:38:22;27.70;1.00
5901;DHT22;2976;49.764;9.796;2022-07-29T06:40:47;27.90;1.00
5901;DHT22;2976;49.764;9.796;2022-07-29T06:43:33;28.30;1.00
5901;DHT22;2976;49.764;9.796;2022-07-29T06:46:06;28.40;1.00
5901;DHT22;2976;49.764;9.796;2022-07-29T06:48:32;27.80;1.00
5901;DHT22;2976;49.764;9.796;2022-07-29T06:50:58;28.00;1.00
5901;DHT22;2976;49.764;9.796;2022-07-29T06:53:26;27.90;1.00
5901;DHT22;2976;49.764;9.796;2022-07-29T06:55:51;28.10;1.00
5901;DHT22;2976;49.764;9.796;2022-07-29T06:58:17;28.50;1.00
5901;DHT22;2976;49.764;9.796;2022-07-29T07:00:46;28.60;1.00
5901;DHT22;2976;49.764;9.796;2022-07-29T07:03:11;28.90;1.00
5901;DHT22;2976;49.764;9.796;2022-07-29T07:05:38;29.30;1.00
5901;DHT22;2976;49.764;9.796;2022-07-29T07:08:04;29.90;1.00
5901;DHT22;2976;49.764;9.796;2022-07-29T07:10:29;29.80;1.00
5901;DHT22;2976;49.764;9.796;2022-07-29T07:12:55;29.70;1.00
5901;DHT22;2976;49.764;9.796;2022-07-29T07:15:21;29.90;1.00
5901;DHT22;2976;49.764;9.796;2022-07-29T07:17:48;29.80;1.00
5901;DHT22;2976;49.764;9.796;2022-07-29T07:20:15;29.50;1.00
5901;DHT22;2976;49.764;9.796;2022-07-29T07:22:40;29.60;1.00
5901;DHT22;2976;49.764;9.796;2022-07-29T07:25:06;30.20;1.00
5901;DHT22;2976;49.764;9.796;2022-07-29T07:27:32;30.20;1.00
5901;DHT22;2976;49.764;9.796;2022-07-29T07:29:57;29.80;1.00
5901;DHT22;2976;49.764;9.796;2022-07-29T07:32:23;29.20;1.00
5901;DHT22;2976;49.764;9.796;2022-07-29T07:34:48;28.30;1.00
5901;DHT22;2976;49.764;9.796;2022-07-29T07:37:14;28.00;1.00
5901;DHT22;2976;49.764;9.796;2022-07-29T07:39:40;28.20;1.00
5901;DHT22;2976;49.764;9.796;2022-07-29T07:42:06;28.70;1.00
5901;DHT22;2976;49.764;9.796;2022-07-29T07:44:31;29.70;1.00
5901;DHT22;2976;49.764;9.796;2022-07-29T07:46:57;30.00;1.00
5901;DHT22;2976;49.764;9.796;2022-07-29T07:49:23;29.80;1.00
5901;DHT22;2976;49.764;9.796;2022-07-29T07:51:49;30.00;1.00
5901;DHT22;2976;49.764;9.796;2022-07-29T07:54:14;30.00;1.00
5901;DHT22;2976;49.764;9.796;2022-07-29T07:56:40;29.40;1.00
5901;DHT22;2976;49.764;9.796;2022-07-29T07:59:05;29.00;1.00
5901;DHT22;2976;49.764;9.796;2022-07-29T08:01:31;29.00;1.00
5901;DHT22;2976;49.764;9.796;2022-07-29T08:03:57;29.00;1.00
5901;DHT22;2976;49.764;9.796;2022-07-29T08:06:22;29.00;1.00
5901;DHT22;2976;49.764;9.796;2022-07-29T08:08:50;28.40;1.00
5901;DHT22;2976;49.764;9.796;2022-07-29T08:11:15;28.40;1.00
5901;DHT22;2976;49.764;9.796;2022-07-29T08:13:42;28.50;1.00
5901;DHT22;2976;49.764;9.796;2022-07-29T08:16:08;29.30;1.00
5901;DHT22;2976;49.764;9.796;2022-07-29T08:18:39;30.00;1.00
5901;DHT22;2976;49.764;9.796;2022-07-29T08:21:05;30.50;1.00
5901;DHT22;2976;49.764;9.796;2022-07-29T08:23:30;31.30;1.00
5901;DHT22;2976;49.764;9.796;2022-07-29T08:26:08;30.60;1.00
5901;DHT22;2976;49.764;9.796;2022-07-29T08:28:43;30.70;1.00
5901;DHT22;2976;49.764;9.796;2022-07-29T08:31:11;31.10;1.00
5901;DHT22;2976;49.764;9.796;2022-07-29T08:33:36;30.70;1.00
5901;DHT22;2976;49.764;9.796;2022-07-29T08:36:02;30.30;1.00
5901;DHT22;2976;49.764;9.796;2022-07-29T08:38:28;30.30;1.00
5901;DHT22;2976;49.764;9.796;2022-07-29T08:40:53;30.20;1.00
5901;DHT22;2976;49.764;9.796;2022-07-29T08:43:19;30.30;1.00
5901;DHT22;2976;49.764;9.796;2022-07-29T08:45:47;30.80;1.00
5901;DHT22;2976;49.764;9.796;2022-07-29T08:48:13;31.50;1.00
5901;DHT22;2976;49.764;9.796;2022-07-29T08:50:40;32.00;1.00
5901;DHT22;2976;49.764;9.796;2022-07-29T08:53:09;32.10;1.00
5901;DHT22;2976;49.764;9.796;2022-07-29T08:55:38;31.80;1.00
5901;DHT22;2976;49.764;9.796;2022-07-29T08:58:04;31.40;1.00
5901;DHT22;2976;49.764;9.796;2022-07-29T09:00:31;30.90;1.00
5901;DHT22;2976;49.764;9.796;2022-07-29T09:02:57;30.40;1.00
5901;DHT22;2976;49.764;9.796;2022-07-29T09:05:25;29.90;1.00
5901;DHT22;2976;49.764;9.796;2022-07-29T09:07:52;29.60;1.00
5901;DHT22;2976;49.764;9.796;2022-07-29T09:10:17;29.50;1.00
5901;DHT22;2976;49.764;9.796;2022-07-29T09:12:43;29.20;1.00
5901;DHT22;2976;49.764;9.796;2022-07-29T09:15:09;29.00;1.00
5901;DHT22;2976;49.764;9.796;2022-07-29T09:17:45;28.80;1.00
5901;DHT22;2976;49.764;9.796;2022-07-29T09:20:17;28.80;1.00
5901;DHT22;2976;49.764;9.796;2022-07-29T09:22:43;28.50;1.00
5901;DHT22;2976;49.764;9.796;2022-07-29T09:25:11;27.60;1.00
5901;DHT22;2976;49.764;9.796;2022-07-29T09:27:37;26.70;1.00
5901;DHT22;2976;49.764;9.796;2022-07-29T09:30:05;26.20;1.00
5901;DHT22;2976;49.764;9.796;2022-07-29T09:32:32;26.00;1.00
5901;DHT22;2976;49.764;9.796;2022-07-29T09:35:17;25.90;1.00
5901;DHT22;2976;49.764;9.796;2022-07-29T09:37:44;25.70;1.00
5901;DHT22;2976;49.764;9.796;2022-07-29T09:40:21;25.20;60.90
5901;DHT22;2976;49.764;9.796;2022-07-29T09:42:47;24.50;99.90
5901;DHT22;2976;49.764;9.796;2022-07-29T09:45:32;23.70;99.90
5901;DHT22;2976;49.764;9.796;2022-07-29T09:47:59;22.70;1.00
5901;DHT22;2976;49.764;9.796;2022-07-29T09:50:41;22.40;99.90
5901;DHT22;2976;49.764;9.796;2022-07-29T09:53:07;22.20;1.00
5901;DHT22;2976;49.764;9.796;2022-07-29T09:55:46;22.20;1.00
5901;DHT22;2976;49.764;9.796;2022-07-29T09:58:21;22.30;1.00
5901;DHT22;2976;49.764;9.796;2022-07-29T10:00:48;22.30;1.00
5901;DHT22;2976;49.764;9.796;2022-07-29T10:03:14;22.30;1.00
5901;DHT22;2976;49.764;9.796;2022-07-29T10:05:41;22.30;99.90
5901;DHT22;2976;49.764;9.796;2022-07-29T10:08:07;22.10;1.00
5901;DHT22;2976;49.764;9.796;2022-07-29T10:10:36;22.10;99.90
5901;DHT22;2976;49.764;9.796;2022-07-29T10:13:04;21.90;1.00
5901;DHT22;2976;49.764;9.796;2022-07-29T10:15:33;22.00;99.90
5901;DHT22;2976;49.764;9.796;2022-07-29T10:17:59;22.20;99.90
5901;DHT22;2976;49.764;9.796;2022-07-29T10:20:26;22.50;99.90
5901;DHT22;2976;49.764;9.796;2022-07-29T10:22:53;22.80;1.00
5901;DHT22;2976;49.764;9.796;2022-07-29T10:25:19;23.20;99.90
5901;DHT22;2976;49.764;9.796;2022-07-29T10:27:46;23.50;99.90
5901;DHT22;2976;49.764;9.796;2022-07-29T10:30:14;23.80;1.00
5901;DHT22;2976;49.764;9.796;2022-07-29T10:32:56;24.20;99.90
5901;DHT22;2976;49.764;9.796;2022-07-29T10:43:59;25.10;1.00
5901;DHT22;2976;49.764;9.796;2022-07-29T10:46:27;25.40;1.00
5901;DHT22;2976;49.764;9.796;2022-07-29T10:49:27;25.40;1.00
5901;DHT22;2976;49.764;9.796;2022-07-29T10:52:05;25.70;1.00
5901;DHT22;2976;49.764;9.796;2022-07-29T11:05:05;27.60;1.00
5901;DHT22;2976;49.764;9.796;2022-07-29T11:07:32;27.70;1.00
5901;DHT22;2976;49.764;9.796;2022-07-29T11:15:11;27.10;1.00
5901;DHT22;2976;49.764;9.796;2022-07-29T11:20:39;27.20;1.00
5901;DHT22;2976;49.764;9.796;2022-07-29T11:23:31;26.90;1.00
5901;DHT22;2976;49.764;9.796;2022-07-29T11:26:12;26.90;1.00
5901;DHT22;2976;49.764;9.796;2022-07-29T11:31:20;26.90;1.00
5901;DHT22;2976;49.764;9.796;2022-07-29T11:33:57;27.40;1.00
5901;DHT22;2976;49.764;9.796;2022-07-29T11:36:22;27.70;1.00
5901;DHT22;2976;49.764;9.796;2022-07-29T11:38:48;27.60;1.00
5901;DHT22;2976;49.764;9.796;2022-07-29T11:41:21;27.50;1.00
5901;DHT22;2976;49.764;9.796;2022-07-29T11:46:43;27.60;1.00
5901;DHT22;2976;49.764;9.796;2022-07-29T11:49:09;27.70;1.00
5901;DHT22;2976;49.764;9.796;2022-07-29T11:51:39;28.00;1.00
5901;DHT22;2976;49.764;9.796;2022-07-29T11:54:05;28.00;1.00
5901;DHT22;2976;49.764;9.796;2022-07-29T11:56:32;27.80;1.00
5901;DHT22;2976;49.764;9.796;2022-07-29T11:59:07;28.00;1.00
5901;DHT22;2976;49.764;9.796;2022-07-29T12:01:34;28.70;1.00
5901;DHT22;2976;49.764;9.796;2022-07-29T12:04:07;29.30;1.00
5901;DHT22;2976;49.764;9.796;2022-07-29T12:06:36;29.80;1.00
5901;DHT22;2976;49.764;9.796;2022-07-29T12:09:08;29.70;1.00
5901;DHT22;2976;49.764;9.796;2022-07-29T12:11:34;29.50;1.00
5901;DHT22;2976;49.764;9.796;2022-07-29T12:13:59;29.40;1.00
5901;DHT22;2976;49.764;9.796;2022-07-29T12:16:35;29.50;1.00
5901;DHT22;2976;49.764;9.796;2022-07-29T12:19:04;29.00;1.00
5901;DHT22;2976;49.764;9.796;2022-07-29T12:21:50;28.90;1.00
5901;DHT22;2976;49.764;9.796;2022-07-29T12:24:16;28.60;1.00
5901;DHT22;2976;49.764;9.796;2022-07-29T12:26:52;28.40;1.00
5901;DHT22;2976;49.764;9.796;2022-07-29T12:29:18;28.10;1.00
5901;DHT22;2976;49.764;9.796;2022-07-29T12:31:44;27.80;1.00
5901;DHT22;2976;49.764;9.796;2022-07-29T12:34:12;27.90;1.00
5901;DHT22;2976;49.764;9.796;2022-07-29T12:36:37;28.00;1.00
5901;DHT22;2976;49.764;9.796;2022-07-29T12:39:04;28.00;1.00
5901;DHT22;2976;49.764;9.796;2022-07-29T12:41:30;27.80;1.00
5901;DHT22;2976;49.764;9.796;2022-07-29T12:43:56;27.40;1.00
5901;DHT22;2976;49.764;9.796;2022-07-29T12:46:21;27.30;1.00
5901;DHT22;2976;49.764;9.796;2022-07-29T12:48:51;26.80;1.00
5901;DHT22;2976;49.764;9.796;2022-07-29T12:51:31;26.40;1.00
5901;DHT22;2976;49.764;9.796;2022-07-29T12:54:11;26.20;1.00
5901;DHT22;2976;49.764;9.796;2022-07-29T12:56:39;26.10;1.00
5901;DHT22;2976;49.764;9.796;2022-07-29T12:59:21;26.00;1.00
5901;DHT22;2976;49.764;9.796;2022-07-29T13:01:49;25.70;1.00
5901;DHT22;2976;49.764;9.796;2022-07-29T13:04:31;25.60;1.00
5901;DHT22;2976;49.764;9.796;2022-07-29T13:07:01;25.60;1.00
5901;DHT22;2976;49.764;9.796;2022-07-29T13:09:43;25.50;1.00
5901;DHT22;2976;49.764;9.796;2022-07-29T13:12:11;25.30;1.00
5901;DHT22;2976;49.764;9.796;2022-07-29T13:14:39;25.10;1.00
5901;DHT22;2976;49.764;9.796;2022-07-29T13:19:37;24.70;1.00
5901;DHT22;2976;49.764;9.796;2022-07-29T13:22:04;24.50;37.70
5901;DHT22;2976;49.764;9.796;2022-07-29T13:24:30;24.40;60.00
5901;DHT22;2976;49.764;9.796;2022-07-29T13:26:55;24.30;99.90
5901;DHT22;2976;49.764;9.796;2022-07-29T13:29:21;24.10;99.90
5901;DHT22;2976;49.764;9.796;2022-07-29T13:31:46;23.90;99.90
5901;DHT22;2976;49.764;9.796;2022-07-29T13:34:12;23.70;1.00
5901;DHT22;2976;49.764;9.796;2022-07-29T13:36:37;23.40;1.00
5901;DHT22;2976;49.764;9.796;2022-07-29T13:39:03;22.90;99.90
5901;DHT22;2976;49.764;9.796;2022-07-29T13:41:29;22.40;1.00
5901;DHT22;2976;49.764;9.796;2022-07-29T13:43:54;22.00;1.00
5901;DHT22;2976;49.764;9.796;2022-07-29T13:46:21;21.80;1.00
5901;DHT22;2976;49.764;9.796;2022-07-29T13:48:46;21.60;1.00
5901;DHT22;2976;49.764;9.796;2022-07-29T13:51:12;21.70;4.60
5901;DHT22;2976;49.764;9.796;2022-07-29T13:53:38;21.60;1.00
5901;DHT22;2976;49.764;9.796;2022-07-29T13:56:04;21.60;1.00
5901;DHT22;2976;49.764;9.796;2022-07-29T13:58:32;21.70;1.00
5901;DHT22;2976;49.764;9.796;2022-07-29T14:00:58;21.90;1.00
5901;DHT22;2976;49.764;9.796;2022-07-29T14:03:24;22.10;1.00
5901;DHT22;2976;49.764;9.796;2022-07-29T14:05:50;22.20;1.00
5901;DHT22;2976;49.764;9.796;2022-07-29T14:08:16;22.10;1.00
5901;DHT22;2976;49.764;9.796;2022-07-29T14:10:41;21.90;1.00
5901;DHT22;2976;49.764;9.796;2022-07-29T14:13:07;21.80;1.00
5901;DHT22;2976;49.764;9.796;2022-07-29T14:15:33;21.90;36.90
5901;DHT22;2976;49.764;9.796;2022-07-29T14:17:58;22.10;29.30
5901;DHT22;2976;49.764;9.796;2022-07-29T14:20:24;22.20;23.20
5901;DHT22;2976;49.764;9.796;2022-07-29T14:22:49;22.00;39.10
5901;DHT22;2976;49.764;9.796;2022-07-29T14:25:15;21.70;61.40
5901;DHT22;2976;49.764;9.796;2022-07-29T14:27:41;21.60;92.60
5901;DHT22;2976;49.764;9.796;2022-07-29T14:30:07;21.50;97.90
5901;DHT22;2976;49.764;9.796;2022-07-29T14:32:32;21.50;89.30
5901;DHT22;2976;49.764;9.796;2022-07-29T14:34:58;21.50;80.70
5901;DHT22;2976;49.764;9.796;2022-07-29T14:37:23;21.40;91.80
5901;DHT22;2976;49.764;9.796;2022-07-29T14:39:49;21.30;91.30
5901;DHT22;2976;49.764;9.796;2022-07-29T14:42:15;21.20;96.40
5901;DHT22;2976;49.764;9.796;2022-07-29T14:44:41;21.20;85.30
5901;DHT22;2976;49.764;9.796;2022-07-29T14:47:06;21.10;90.90
5901;DHT22;2976;49.764;9.796;2022-07-29T14:49:32;21.10;97.90
5901;DHT22;2976;49.764;9.796;2022-07-29T14:51:57;21.10;99.90
5901;DHT22;2976;49.764;9.796;2022-07-29T14:54:23;21.00;66.10
5901;DHT22;2976;49.764;9.796;2022-07-29T14:56:48;21.00;41.70
5901;DHT22;2976;49.764;9.796;2022-07-29T14:59:16;21.00;14.80
5901;DHT22;2976;49.764;9.796;2022-07-29T15:01:42;21.00;51.50
5901;DHT22;2976;49.764;9.796;2022-07-29T15:04:08;20.90;67.00
5901;DHT22;2976;49.764;9.796;2022-07-29T15:06:33;20.50;69.50
5901;DHT22;2976;49.764;9.796;2022-07-29T15:08:59;20.20;73.80
5901;DHT22;2976;49.764;9.796;2022-07-29T15:11:25;20.10;91.90
5901;DHT22;2976;49.764;9.796;2022-07-29T15:13:50;20.00;77.90
5901;DHT22;2976;49.764;9.796;2022-07-29T15:16:16;19.90;61.20
5901;DHT22;2976;49.764;9.796;2022-07-29T15:18:42;19.80;60.10
5901;DHT22;2976;49.764;9.796;2022-07-29T15:21:07;19.80;85.10
5901;DHT22;2976;49.764;9.796;2022-07-29T15:23:33;19.70;96.70
5901;DHT22;2976;49.764;9.796;2022-07-29T15:26:01;19.70;99.90
5901;DHT22;2976;49.764;9.796;2022-07-29T15:28:27;19.70;99.90
5901;DHT22;2976;49.764;9.796;2022-07-29T15:30:53;19.60;99.90
5901;DHT22;2976;49.764;9.796;2022-07-29T15:33:19;19.60;99.90
5901;DHT22;2976;49.764;9.796;2022-07-29T15:35:45;19.60;99.90
5901;DHT22;2976;49.764;9.796;2022-07-29T15:38:10;19.60;99.90
5901;DHT22;2976;49.764;9.796;2022-07-29T15:40:39;19.70;99.90
5901;DHT22;2976;49.764;9.796;2022-07-29T15:43:08;19.60;99.90
5901;DHT22;2976;49.764;9.796;2022-07-29T15:45:38;19.70;67.80
5901;DHT22;2976;49.764;9.796;2022-07-29T15:48:05;19.80;72.80
5901;DHT22;2976;49.764;9.796;2022-07-29T15:50:32;19.60;99.90
5901;DHT22;2976;49.764;9.796;2022-07-29T15:52:58;19.50;99.90
5901;DHT22;2976;49.764;9.796;2022-07-29T15:55:23;19.50;99.90
5901;DHT22;2976;49.764;9.796;2022-07-29T15:57:49;19.40;99.90
5901;DHT22;2976;49.764;9.796;2022-07-29T16:00:15;19.30;99.90
5901;DHT22;2976;49.764;9.796;2022-07-29T16:02:42;19.30;99.90
5901;DHT22;2976;49.764;9.796;2022-07-29T16:05:08;19.10;99.90
5901;DHT22;2976;49.764;9.796;2022-07-29T16:07:33;19.10;99.90
5901;DHT22;2976;49.764;9.796;2022-07-29T16:09:59;19.00;99.90
5901;DHT22;2976;49.764;9.796;2022-07-29T16:12:25;19.10;99.90
5901;DHT22;2976;49.764;9.796;2022-07-29T16:14:50;19.10;99.90
5901;DHT22;2976;49.764;9.796;2022-07-29T16:17:16;19.10;99.90
5901;DHT22;2976;49.764;9.796;2022-07-29T16:19:42;19.00;99.90
5901;DHT22;2976;49.764;9.796;2022-07-29T16:22:08;18.90;99.90
5901;DHT22;2976;49.764;9.796;2022-07-29T16:24:34;18.90;99.90
5901;DHT22;2976;49.764;9.796;2022-07-29T16:26:59;18.90;99.90
5901;DHT22;2976;49.764;9.796;2022-07-29T16:29:25;18.90;99.90
5901;DHT22;2976;49.764;9.796;2022-07-29T16:31:50;18.90;99.90
5901;DHT22;2976;49.764;9.796;2022-07-29T16:34:17;19.00;99.90
5901;DHT22;2976;49.764;9.796;2022-07-29T16:36:42;19.10;99.90
5901;DHT22;2976;49.764;9.796;2022-07-29T16:39:08;19.20;99.90
5901;DHT22;2976;49.764;9.796;2022-07-29T16:41:35;19.20;99.90
5901;DHT22;2976;49.764;9.796;2022-07-29T16:44:01;19.40;99.90
5901;DHT22;2976;49.764;9.796;2022-07-29T16:46:26;19.40;99.90
5901;DHT22;2976;49.764;9.796;2022-07-29T16:48:52;19.30;99.90
5901;DHT22;2976;49.764;9.796;2022-07-29T16:51:17;19.20;99.90
5901;DHT22;2976;49.764;9.796;2022-07-29T16:53:43;19.20;99.90
5901;DHT22;2976;49.764;9.796;2022-07-29T16:56:10;19.10;99.90
5901;DHT22;2976;49.764;9.796;2022-07-29T16:58:35;19.10;99.90